sensor_id;sensor_type;location;lat;lon;timestamp;pressure;altitude;pressure_sealevel;temperature;humidity
73674;BME280;61975;48.660;10.164;2022-08-03T00:01:17;95761.50;;;18.73;74.54
73674;BME280;61975;48.660;10.164;2022-08-03T00:03:43;95754.81;;;18.67;74.57
73674;BME280;61975;48.660;10.164;2022-08-03T00:06:08;95756.53;;;18.61;74.86
73674;BME280;61975;48.660;10.164;2022-08-03T00:08:34;95757.03;;;18.56;74.95
73674;BME280;61975;48.660;10.164;2022-08-03T00:10:59;95761.06;;;18.55;75.08
73674;BME280;61975;48.660;10.164;2022-08-03T00:13:25;95759.94;;;18.52;75.14
73674;BME280;61975;48.660;10.164;2022-08-03T00:15:51;95758.78;;;18.50;75.07
73674;BME280;61975;48.660;10.164;2022-08-03T00:18:17;95757.97;;;18.49;74.93
73674;BME280;61975;48.660;10.164;2022-08-03T00:20:43;95752.44;;;18.46;75.10
73674;BME280;61975;48.660;10.164;2022-08-03T00:23:08;95758.19;;;18.39;75.28
73674;BME280;61975;48.660;10.164;2022-08-03T00:25:34;95761.06;;;18.35;75.25
73674;BME280;61975;48.660;10.164;2022-08-03T00:28:01;95751.78;;;18.35;75.41
73674;BME280;61975;48.660;10.164;2022-08-03T00:30:26;95755.94;;;18.30;75.71
73674;BME280;61975;48.660;10.164;2022-08-03T00:32:52;95756.69;;;18.31;75.54
73674;BME280;61975;48.660;10.164;2022-08-03T00:35:17;95749.88;;;18.32;75.48
73674;BME280;61975;48.660;10.164;2022-08-03T00:37:43;95748.69;;;18.29;75.57
73674;BME280;61975;48.660;10.164;2022-08-03T00:40:10;95746.69;;;18.30;75.67
73674;BME280;61975;48.660;10.164;2022-08-03T00:42:46;95747.97;;;18.25;75.85
73674;BME280;61975;48.660;10.164;2022-08-03T00:45:12;95744.88;;;18.20;75.90
73674;BME280;61975;48.660;10.164;2022-08-03T00:47:38;95750.56;;;18.16;75.96
73674;BME280;61975;48.660;10.164;2022-08-03T00:50:03;95744.16;;;18.16;76.03
73674;BME280;61975;48.660;10.164;2022-08-03T00:52:29;95743.03;;;18.10;75.99
73674;BME280;61975;48.660;10.164;2022-08-03T00:54:55;95745.13;;;18.06;76.29
73674;BME280;61975;48.660;10.164;2022-08-03T00:57:20;95742.44;;;17.99;76.86
73674;BME280;61975;48.660;10.164;2022-08-03T00:59:46;95742.44;;;17.99;76.86
73674;BME280;61975;48.660;10.164;2022-08-03T01:02:11;95746.13;;;17.96;76.87
73674;BME280;61975;48.660;10.164;2022-08-03T01:04:37;95746.91;;;17.96;77.05
73674;BME280;61975;48.660;10.164;2022-08-03T01:07:10;95752.09;;;17.98;76.54
73674;BME280;61975;48.660;10.164;2022-08-03T01:12:23;95741.78;;;17.91;76.57
73674;BME280;61975;48.660;10.164;2022-08-03T01:15:02;95743.94;;;17.84;77.08
73674;BME280;61975;48.660;10.164;2022-08-03T01:17:55;95738.38;;;17.80;77.20
73674;BME280;61975;48.660;10.164;2022-08-03T01:20:23;95745.25;;;17.76;77.21
73674;BME280;61975;48.660;10.164;2022-08-03T01:23:13;95747.41;;;17.68;77.67
73674;BME280;61975;48.660;10.164;2022-08-03T01:26:08;95743.13;;;17.60;78.01
73674;BME280;61975;48.660;10.164;2022-08-03T01:31:14;95738.78;;;17.56;77.83
73674;BME280;61975;48.660;10.164;2022-08-03T01:33:45;95729.19;;;17.53;78.02
73674;BME280;61975;48.660;10.164;2022-08-03T01:36:17;95735.22;;;17.52;77.81
73674;BME280;61975;48.660;10.164;2022-08-03T01:38:48;95737.19;;;17.55;77.75
73674;BME280;61975;48.660;10.164;2022-08-03T01:41:20;95729.19;;;17.53;77.98
73674;BME280;61975;48.660;10.164;2022-08-03T01:43:48;95727.63;;;17.52;78.31
73674;BME280;61975;48.660;10.164;2022-08-03T01:46:16;95724.00;;;17.52;78.20
73674;BME280;61975;48.660;10.164;2022-08-03T01:48:43;95732.00;;;17.53;78.31
73674;BME280;61975;48.660;10.164;2022-08-03T01:51:10;95725.19;;;17.54;78.29
73674;BME280;61975;48.660;10.164;2022-08-03T01:53:39;95723.66;;;17.50;78.62
73674;BME280;61975;48.660;10.164;2022-08-03T01:56:09;95723.28;;;17.48;78.34
73674;BME280;61975;48.660;10.164;2022-08-03T01:58:35;95723.28;;;17.48;78.46
73674;BME280;61975;48.660;10.164;2022-08-03T02:01:02;95723.69;;;17.46;78.35
73674;BME280;61975;48.660;10.164;2022-08-03T02:03:30;95715.69;;;17.45;78.57
73674;BME280;61975;48.660;10.164;2022-08-03T02:05:59;95725.78;;;17.42;78.31
73674;BME280;61975;48.660;10.164;2022-08-03T02:08:26;95727.00;;;17.38;78.70
73674;BME280;61975;48.660;10.164;2022-08-03T02:10:54;95720.31;;;17.32;78.61
73674;BME280;61975;48.660;10.164;2022-08-03T02:13:22;95714.84;;;17.21;78.96
73674;BME280;61975;48.660;10.164;2022-08-03T02:15:48;95728.13;;;17.17;79.33
73674;BME280;61975;48.660;10.164;2022-08-03T02:18:17;95721.00;;;17.13;79.37
73674;BME280;61975;48.660;10.164;2022-08-03T02:20:45;95719.03;;;17.10;79.58
73674;BME280;61975;48.660;10.164;2022-08-03T02:23:13;95722.63;;;17.10;79.57
73674;BME280;61975;48.660;10.164;2022-08-03T02:25:50;95713.00;;;17.11;79.56
73674;BME280;61975;48.660;10.164;2022-08-03T02:28:19;95718.19;;;17.13;79.51
73674;BME280;61975;48.660;10.164;2022-08-03T02:30:49;95717.84;;;17.11;79.46
73674;BME280;61975;48.660;10.164;2022-08-03T02:33:20;95715.03;;;17.11;79.81
73674;BME280;61975;48.660;10.164;2022-08-03T02:35:49;95711.84;;;17.09;79.93
73674;BME280;61975;48.660;10.164;2022-08-03T02:38:19;95708.72;;;17.03;79.97
73674;BME280;61975;48.660;10.164;2022-08-03T02:40:45;95713.94;;;17.01;79.89
73674;BME280;61975;48.660;10.164;2022-08-03T02:43:19;95712.44;;;16.97;79.96
73674;BME280;61975;48.660;10.164;2022-08-03T02:45:48;95715.25;;;16.97;79.91
73674;BME280;61975;48.660;10.164;2022-08-03T02:48:19;95710.41;;;16.97;79.91
73674;BME280;61975;48.660;10.164;2022-08-03T02:50:48;95702.78;;;16.98;79.61
73674;BME280;61975;48.660;10.164;2022-08-03T02:53:16;95706.06;;;16.93;80.10
73674;BME280;61975;48.660;10.164;2022-08-03T02:55:43;95703.75;;;16.88;80.15
73674;BME280;61975;48.660;10.164;2022-08-03T02:58:12;95703.00;;;16.84;80.40
73674;BME280;61975;48.660;10.164;2022-08-03T03:00:38;95706.16;;;16.86;80.26
73674;BME280;61975;48.660;10.164;2022-08-03T03:03:05;95703.00;;;16.84;80.20
73674;BME280;61975;48.660;10.164;2022-08-03T03:05:31;95705.06;;;16.80;80.46
73674;BME280;61975;48.660;10.164;2022-08-03T03:07:58;95715.06;;;16.81;80.33
73674;BME280;61975;48.660;10.164;2022-08-03T03:10:25;95711.53;;;16.73;80.44
73674;BME280;61975;48.660;10.164;2022-08-03T03:12:53;95712.69;;;16.76;80.51
73674;BME280;61975;48.660;10.164;2022-08-03T03:15:20;95705.47;;;16.78;80.34
73674;BME280;61975;48.660;10.164;2022-08-03T03:17:47;95705.91;;;16.77;80.52
73674;BME280;61975;48.660;10.164;2022-08-03T03:20:14;95708.75;;;16.73;80.32
73674;BME280;61975;48.660;10.164;2022-08-03T03:22:40;95705.19;;;16.69;80.57
73674;BME280;61975;48.660;10.164;2022-08-03T03:25:07;95704.88;;;16.64;81.04
73674;BME280;61975;48.660;10.164;2022-08-03T03:27:33;95712.06;;;16.65;80.96
73674;BME280;61975;48.660;10.164;2022-08-03T03:29:58;95711.31;;;16.61;80.99
73674;BME280;61975;48.660;10.164;2022-08-03T03:32:28;95714.19;;;16.57;80.73
73674;BME280;61975;48.660;10.164;2022-08-03T03:34:54;95710.19;;;16.55;80.91
73674;BME280;61975;48.660;10.164;2022-08-03T03:37:21;95713.84;;;16.52;81.19
73674;BME280;61975;48.660;10.164;2022-08-03T03:39:46;95707.44;;;16.51;81.53
73674;BME280;61975;48.660;10.164;2022-08-03T03:42:12;95713.03;;;16.51;81.37
73674;BME280;61975;48.660;10.164;2022-08-03T03:44:38;95720.28;;;16.49;81.75
73674;BME280;61975;48.660;10.164;2022-08-03T03:47:03;95721.06;;;16.49;81.42
73674;BME280;61975;48.660;10.164;2022-08-03T03:49:30;95720.28;;;16.49;81.37
73674;BME280;61975;48.660;10.164;2022-08-03T03:51:56;95714.72;;;16.45;81.48
73674;BME280;61975;48.660;10.164;2022-08-03T03:54:21;95721.13;;;16.46;81.63
73674;BME280;61975;48.660;10.164;2022-08-03T03:56:47;95721.13;;;16.46;81.20
73674;BME280;61975;48.660;10.164;2022-08-03T03:59:12;95714.34;;;16.39;81.64
73674;BME280;61975;48.660;10.164;2022-08-03T04:01:38;95713.13;;;16.40;81.25
73674;BME280;61975;48.660;10.164;2022-08-03T04:04:04;95713.13;;;16.44;80.83
73674;BME280;61975;48.660;10.164;2022-08-03T04:06:49;95713.13;;;16.44;80.62
73674;BME280;61975;48.660;10.164;2022-08-03T04:09:35;95717.94;;;16.43;80.53
73674;BME280;61975;48.660;10.164;2022-08-03T04:12:22;95715.56;;;16.42;80.80
73674;BME280;61975;48.660;10.164;2022-08-03T04:14:49;95715.94;;;16.40;80.94
73674;BME280;61975;48.660;10.164;2022-08-03T04:17:18;95720.34;;;16.41;80.53
73674;BME280;61975;48.660;10.164;2022-08-03T04:19:52;95715.94;;;16.40;80.51
73674;BME280;61975;48.660;10.164;2022-08-03T04:22:21;95721.97;;;16.42;80.52
73674;BME280;61975;48.660;10.164;2022-08-03T04:24:51;95725.16;;;16.41;81.00
73674;BME280;61975;48.660;10.164;2022-08-03T04:27:21;95725.94;;;16.45;80.79
73674;BME280;61975;48.660;10.164;2022-08-03T04:29:50;95733.53;;;16.44;80.92
73674;BME280;61975;48.660;10.164;2022-08-03T04:32:18;95720.75;;;16.43;81.02
73674;BME280;61975;48.660;10.164;2022-08-03T04:34:45;95732.34;;;16.46;80.62
73674;BME280;61975;48.660;10.164;2022-08-03T04:37:16;95730.69;;;16.48;80.38
73674;BME280;61975;48.660;10.164;2022-08-03T04:39:43;95723.88;;;16.49;80.29
73674;BME280;61975;48.660;10.164;2022-08-03T04:42:10;95725.09;;;16.48;80.72
73674;BME280;61975;48.660;10.164;2022-08-03T04:44:40;95735.50;;;16.48;80.51
73674;BME280;61975;48.660;10.164;2022-08-03T04:47:06;95731.50;;;16.49;80.33
73674;BME280;61975;48.660;10.164;2022-08-03T04:49:34;95735.03;;;16.53;79.92
73674;BME280;61975;48.660;10.164;2022-08-03T04:52:01;95736.22;;;16.55;79.68
73674;BME280;61975;48.660;10.164;2022-08-03T04:54:26;95733.00;;;16.57;79.84
73674;BME280;61975;48.660;10.164;2022-08-03T04:56:52;95737.75;;;16.60;80.13
73674;BME280;61975;48.660;10.164;2022-08-03T04:59:17;95742.47;;;16.66;79.80
73674;BME280;61975;48.660;10.164;2022-08-03T05:01:43;95745.59;;;16.72;79.86
73674;BME280;61975;48.660;10.164;2022-08-03T05:04:09;95740.75;;;16.76;79.42
73674;BME280;61975;48.660;10.164;2022-08-03T05:06:34;95734.25;;;16.82;78.87
73674;BME280;61975;48.660;10.164;2022-08-03T05:09:00;95735.38;;;16.88;78.59
73674;BME280;61975;48.660;10.164;2022-08-03T05:11:25;95734.88;;;16.97;78.38
73674;BME280;61975;48.660;10.164;2022-08-03T05:13:51;95741.22;;;17.01;78.09
73674;BME280;61975;48.660;10.164;2022-08-03T05:16:16;95741.16;;;17.04;77.91
73674;BME280;61975;48.660;10.164;2022-08-03T05:18:42;95740.69;;;17.09;77.95
73674;BME280;61975;48.660;10.164;2022-08-03T05:21:09;95739.38;;;17.17;77.19
73674;BME280;61975;48.660;10.164;2022-08-03T05:23:35;95742.44;;;17.26;77.18
73674;BME280;61975;48.660;10.164;2022-08-03T05:26:00;95743.13;;;17.34;76.79
73674;BME280;61975;48.660;10.164;2022-08-03T05:28:26;95743.81;;;17.41;76.38
73674;BME280;61975;48.660;10.164;2022-08-03T05:30:51;95754.16;;;17.48;76.21
73674;BME280;61975;48.660;10.164;2022-08-03T05:33:17;95750.81;;;17.56;75.94
73674;BME280;61975;48.660;10.164;2022-08-03T05:35:42;95757.09;;;17.64;75.58
73674;BME280;61975;48.660;10.164;2022-08-03T05:38:08;95759.78;;;17.71;75.30
73674;BME280;61975;48.660;10.164;2022-08-03T05:40:33;95756.06;;;17.77;74.80
73674;BME280;61975;48.660;10.164;2022-08-03T05:43:00;95748.69;;;17.87;74.71
73674;BME280;61975;48.660;10.164;2022-08-03T05:45:25;95749.34;;;17.94;74.46
73674;BME280;61975;48.660;10.164;2022-08-03T05:47:51;95748.78;;;18.03;74.37
73674;BME280;61975;48.660;10.164;2022-08-03T05:50:19;95748.66;;;18.10;74.21
73674;BME280;61975;48.660;10.164;2022-08-03T05:52:45;95747.34;;;18.18;73.97
73674;BME280;61975;48.660;10.164;2022-08-03T05:55:12;95757.56;;;18.28;73.42
73674;BME280;61975;48.660;10.164;2022-08-03T05:57:38;95748.22;;;18.34;73.30
73674;BME280;61975;48.660;10.164;2022-08-03T06:00:06;95743.25;;;18.42;73.10
73674;BME280;61975;48.660;10.164;2022-08-03T06:02:32;95753.16;;;18.50;73.17
73674;BME280;61975;48.660;10.164;2022-08-03T06:04:57;95747.41;;;18.57;72.91
73674;BME280;61975;48.660;10.164;2022-08-03T06:07:23;95747.97;;;18.68;72.58
73674;BME280;61975;48.660;10.164;2022-08-03T06:09:48;95746.97;;;18.78;72.15
73674;BME280;61975;48.660;10.164;2022-08-03T06:12:14;95748.38;;;18.86;72.03
73674;BME280;61975;48.660;10.164;2022-08-03T06:14:40;95754.66;;;18.93;71.83
73674;BME280;61975;48.660;10.164;2022-08-03T06:17:05;95756.88;;;19.02;71.37
73674;BME280;61975;48.660;10.164;2022-08-03T06:19:30;95751.44;;;19.11;71.14
73674;BME280;61975;48.660;10.164;2022-08-03T06:21:56;95750.78;;;19.23;70.59
73674;BME280;61975;48.660;10.164;2022-08-03T06:24:22;95762.63;;;19.34;70.15
73674;BME280;61975;48.660;10.164;2022-08-03T06:26:47;95763.97;;;19.46;69.71
73674;BME280;61975;48.660;10.164;2022-08-03T06:29:13;95762.13;;;19.55;69.19
73674;BME280;61975;48.660;10.164;2022-08-03T06:31:38;95760.28;;;19.65;68.97
73674;BME280;61975;48.660;10.164;2022-08-03T06:34:04;95759.66;;;19.73;68.76
73674;BME280;61975;48.660;10.164;2022-08-03T06:36:30;95761.78;;;19.85;69.08
73674;BME280;61975;48.660;10.164;2022-08-03T06:38:59;95766.72;;;19.97;69.23
73674;BME280;61975;48.660;10.164;2022-08-03T06:41:25;95764.41;;;20.08;68.61
73674;BME280;61975;48.660;10.164;2022-08-03T06:43:51;95761.72;;;20.21;68.23
73674;BME280;61975;48.660;10.164;2022-08-03T06:46:17;95750.16;;;20.31;67.28
73674;BME280;61975;48.660;10.164;2022-08-03T06:48:42;95757.53;;;20.41;64.94
73674;BME280;61975;48.660;10.164;2022-08-03T06:51:08;95753.63;;;20.51;63.46
73674;BME280;61975;48.660;10.164;2022-08-03T06:53:34;95755.38;;;20.61;63.83
73674;BME280;61975;48.660;10.164;2022-08-03T06:55:59;95764.31;;;20.72;63.18
73674;BME280;61975;48.660;10.164;2022-08-03T06:58:25;95764.72;;;20.87;62.77
73674;BME280;61975;48.660;10.164;2022-08-03T07:00:50;95763.88;;;21.02;63.12
73674;BME280;61975;48.660;10.164;2022-08-03T07:03:16;95771.81;;;21.20;62.74
73674;BME280;61975;48.660;10.164;2022-08-03T07:05:42;95770.94;;;21.35;62.51
73674;BME280;61975;48.660;10.164;2022-08-03T07:08:09;95772.41;;;21.52;62.50
73674;BME280;61975;48.660;10.164;2022-08-03T07:10:35;95773.09;;;21.69;62.93
73674;BME280;61975;48.660;10.164;2022-08-03T07:13:01;95773.25;;;21.78;62.21
73674;BME280;61975;48.660;10.164;2022-08-03T07:15:26;95762.75;;;21.91;61.96
73674;BME280;61975;48.660;10.164;2022-08-03T07:17:52;95759.75;;;22.07;61.40
73674;BME280;61975;48.660;10.164;2022-08-03T07:20:17;95757.25;;;22.22;61.01
73674;BME280;61975;48.660;10.164;2022-08-03T07:22:44;95759.13;;;22.37;60.28
73674;BME280;61975;48.660;10.164;2022-08-03T07:25:09;95760.81;;;22.47;59.83
73674;BME280;61975;48.660;10.164;2022-08-03T07:27:35;95762.06;;;22.46;61.32
73674;BME280;61975;48.660;10.164;2022-08-03T07:30:01;95765.44;;;22.54;60.44
73674;BME280;61975;48.660;10.164;2022-08-03T07:32:29;95760.19;;;22.65;60.20
73674;BME280;61975;48.660;10.164;2022-08-03T07:34:56;95761.38;;;22.76;60.61
73674;BME280;61975;48.660;10.164;2022-08-03T07:37:21;95755.00;;;22.85;61.01
73674;BME280;61975;48.660;10.164;2022-08-03T07:39:47;95755.94;;;23.03;60.30
73674;BME280;61975;48.660;10.164;2022-08-03T07:42:12;95764.97;;;23.11;59.15
73674;BME280;61975;48.660;10.164;2022-08-03T07:44:38;95765.28;;;23.13;59.09
73674;BME280;61975;48.660;10.164;2022-08-03T07:47:04;95757.19;;;23.24;59.21
73674;BME280;61975;48.660;10.164;2022-08-03T07:49:29;95753.84;;;23.38;58.30
73674;BME280;61975;48.660;10.164;2022-08-03T07:51:55;95757.81;;;23.49;57.94
73674;BME280;61975;48.660;10.164;2022-08-03T07:54:39;95756.75;;;23.56;56.63
73674;BME280;61975;48.660;10.164;2022-08-03T07:57:04;95757.13;;;23.67;54.46
73674;BME280;61975;48.660;10.164;2022-08-03T07:59:30;95761.88;;;23.70;53.97
73674;BME280;61975;48.660;10.164;2022-08-03T08:01:55;95753.53;;;23.75;53.77
73674;BME280;61975;48.660;10.164;2022-08-03T08:04:21;95754.34;;;23.76;54.21
73674;BME280;61975;48.660;10.164;2022-08-03T08:06:47;95752.91;;;23.80;54.39
73674;BME280;61975;48.660;10.164;2022-08-03T08:09:12;95748.09;;;23.90;54.53
73674;BME280;61975;48.660;10.164;2022-08-03T08:11:38;95753.81;;;23.99;54.41
73674;BME280;61975;48.660;10.164;2022-08-03T08:14:03;95745.34;;;24.08;54.12
73674;BME280;61975;48.660;10.164;2022-08-03T08:16:29;95749.78;;;24.18;53.34
73674;BME280;61975;48.660;10.164;2022-08-03T08:18:55;95748.84;;;24.30;52.99
73674;BME280;61975;48.660;10.164;2022-08-03T08:21:21;95745.41;;;24.35;52.50
73674;BME280;61975;48.660;10.164;2022-08-03T08:23:46;95749.03;;;24.45;52.16
73674;BME280;61975;48.660;10.164;2022-08-03T08:26:12;95745.56;;;24.50;53.09
73674;BME280;61975;48.660;10.164;2022-08-03T08:28:37;95749.38;;;24.56;52.46
73674;BME280;61975;48.660;10.164;2022-08-03T08:31:03;95750.78;;;24.60;51.86
73674;BME280;61975;48.660;10.164;2022-08-03T08:33:29;95758.69;;;24.65;52.02
73674;BME280;61975;48.660;10.164;2022-08-03T08:35:55;95746.41;;;24.68;51.22
73674;BME280;61975;48.660;10.164;2022-08-03T08:38:21;95747.66;;;24.76;51.88
73674;BME280;61975;48.660;10.164;2022-08-03T08:40:48;95750.50;;;24.85;52.36
73674;BME280;61975;48.660;10.164;2022-08-03T08:43:14;95751.47;;;24.91;51.26
73674;BME280;61975;48.660;10.164;2022-08-03T08:45:40;95748.44;;;24.95;51.68
73674;BME280;61975;48.660;10.164;2022-08-03T08:48:06;95748.94;;;25.02;51.77
73674;BME280;61975;48.660;10.164;2022-08-03T08:50:36;95752.72;;;25.08;50.79
73674;BME280;61975;48.660;10.164;2022-08-03T08:53:06;95748.41;;;25.13;50.33
73674;BME280;61975;48.660;10.164;2022-08-03T08:55:32;95749.22;;;25.13;50.63
73674;BME280;61975;48.660;10.164;2022-08-03T08:58:02;95741.78;;;25.16;50.27
73674;BME280;61975;48.660;10.164;2022-08-03T09:00:29;95752.06;;;25.22;50.23
73674;BME280;61975;48.660;10.164;2022-08-03T09:02:55;95748.56;;;25.27;50.30
73674;BME280;61975;48.660;10.164;2022-08-03T09:05:21;95756.97;;;25.31;49.42
73674;BME280;61975;48.660;10.164;2022-08-03T09:07:47;95748.88;;;25.38;49.58
73674;BME280;61975;48.660;10.164;2022-08-03T09:10:15;95748.72;;;25.42;49.73
73674;BME280;61975;48.660;10.164;2022-08-03T09:12:48;95754.09;;;25.49;49.82
73674;BME280;61975;48.660;10.164;2022-08-03T09:15:19;95748.34;;;25.58;48.77
73674;BME280;61975;48.660;10.164;2022-08-03T09:17:45;95746.63;;;25.60;49.28
73674;BME280;61975;48.660;10.164;2022-08-03T09:20:11;95747.53;;;25.66;48.92
73674;BME280;61975;48.660;10.164;2022-08-03T09:23:02;95741.84;;;25.66;48.80
73674;BME280;61975;48.660;10.164;2022-08-03T09:25:39;95752.28;;;25.69;50.06
73674;BME280;61975;48.660;10.164;2022-08-03T09:28:10;95749.09;;;25.76;49.25
73674;BME280;61975;48.660;10.164;2022-08-03T09:30:38;95750.97;;;25.79;48.67
73674;BME280;61975;48.660;10.164;2022-08-03T09:33:09;95750.63;;;25.86;49.27
73674;BME280;61975;48.660;10.164;2022-08-03T09:40:35;95747.59;;;25.99;48.87
73674;BME280;61975;48.660;10.164;2022-08-03T09:43:00;95749.00;;;26.03;49.06
73674;BME280;61975;48.660;10.164;2022-08-03T09:45:26;95749.94;;;26.09;48.62
73674;BME280;61975;48.660;10.164;2022-08-03T09:47:52;95744.03;;;26.13;48.21
73674;BME280;61975;48.660;10.164;2022-08-03T09:50:17;95739.13;;;26.22;48.08
73674;BME280;61975;48.660;10.164;2022-08-03T09:52:42;95740.81;;;26.29;45.95
73674;BME280;61975;48.660;10.164;2022-08-03T09:55:13;95743.66;;;26.29;46.50
73674;BME280;61975;48.660;10.164;2022-08-03T09:57:39;95736.19;;;26.31;46.55
73674;BME280;61975;48.660;10.164;2022-08-03T10:02:37;95733.44;;;26.46;46.75
73674;BME280;61975;48.660;10.164;2022-08-03T10:05:04;95736.28;;;26.46;45.07
73674;BME280;61975;48.660;10.164;2022-08-03T10:07:41;95729.25;;;26.56;44.49
73674;BME280;61975;48.660;10.164;2022-08-03T10:10:07;95733.53;;;26.61;44.83
73674;BME280;61975;48.660;10.164;2022-08-03T10:12:34;95735.19;;;26.67;44.05
73674;BME280;61975;48.660;10.164;2022-08-03T10:14:59;95737.38;;;26.72;43.81
73674;BME280;61975;48.660;10.164;2022-08-03T10:17:25;95739.06;;;26.79;43.64
73674;BME280;61975;48.660;10.164;2022-08-03T10:19:50;95738.69;;;26.86;42.97
73674;BME280;61975;48.660;10.164;2022-08-03T10:22:21;95734.19;;;26.94;43.05
73674;BME280;61975;48.660;10.164;2022-08-03T10:25:06;95734.78;;;26.98;42.79
73674;BME280;61975;48.660;10.164;2022-08-03T10:27:46;95728.00;;;26.95;42.40
73674;BME280;61975;48.660;10.164;2022-08-03T10:30:15;95730.38;;;26.97;42.31
73674;BME280;61975;48.660;10.164;2022-08-03T10:32:52;95722.81;;;27.08;41.32
73674;BME280;61975;48.660;10.164;2022-08-03T10:35:20;95717.91;;;27.09;42.21
73674;BME280;61975;48.660;10.164;2022-08-03T10:37:59;95729.22;;;27.18;41.47
73674;BME280;61975;48.660;10.164;2022-08-03T10:40:27;95718.78;;;27.15;40.36
73674;BME280;61975;48.660;10.164;2022-08-03T10:42:55;95719.22;;;27.22;40.64
73674;BME280;61975;48.660;10.164;2022-08-03T10:45:26;95711.38;;;27.32;41.21
73674;BME280;61975;48.660;10.164;2022-08-03T10:47:54;95717.00;;;27.41;38.66
73674;BME280;61975;48.660;10.164;2022-08-03T10:50:22;95718.84;;;27.44;38.93
73674;BME280;61975;48.660;10.164;2022-08-03T11:06:18;95700.66;;;27.70;40.11
73674;BME280;61975;48.660;10.164;2022-08-03T11:08:48;95698.94;;;27.78;39.67
73674;BME280;61975;48.660;10.164;2022-08-03T11:14:09;95709.50;;;27.87;39.46
73674;BME280;61975;48.660;10.164;2022-08-03T11:16:41;95704.09;;;27.89;39.46
73674;BME280;61975;48.660;10.164;2022-08-03T11:19:08;95700.75;;;27.90;37.33
73674;BME280;61975;48.660;10.164;2022-08-03T11:29:57;95693.00;;;28.11;33.25
73674;BME280;61975;48.660;10.164;2022-08-03T11:46:07;95690.31;;;28.42;36.55
73674;BME280;61975;48.660;10.164;2022-08-03T11:50:58;95699.13;;;28.58;36.90
73674;BME280;61975;48.660;10.164;2022-08-03T11:53:24;95686.53;;;28.65;35.09
73674;BME280;61975;48.660;10.164;2022-08-03T11:55:49;95687.78;;;28.64;34.87
73674;BME280;61975;48.660;10.164;2022-08-03T11:58:21;95688.06;;;28.66;34.47
73674;BME280;61975;48.660;10.164;2022-08-03T12:00:47;95687.84;;;28.69;35.20
73674;BME280;61975;48.660;10.164;2022-08-03T12:03:15;95689.44;;;28.70;35.99
73674;BME280;61975;48.660;10.164;2022-08-03T12:05:50;95690.28;;;28.76;36.77
73674;BME280;61975;48.660;10.164;2022-08-03T12:08:18;95678.50;;;28.69;34.61
73674;BME280;61975;48.660;10.164;2022-08-03T12:10:54;95676.91;;;28.68;33.33
73674;BME280;61975;48.660;10.164;2022-08-03T12:13:21;95675.66;;;28.69;34.23
73674;BME280;61975;48.660;10.164;2022-08-03T12:15:57;95673.06;;;28.71;35.62
73674;BME280;61975;48.660;10.164;2022-08-03T12:18:23;95677.56;;;28.77;36.97
73674;BME280;61975;48.660;10.164;2022-08-03T12:20:51;95671.19;;;28.88;37.42
73674;BME280;61975;48.660;10.164;2022-08-03T12:23:18;95679.88;;;28.99;36.88
73674;BME280;61975;48.660;10.164;2022-08-03T12:25:44;95676.16;;;29.13;37.24
73674;BME280;61975;48.660;10.164;2022-08-03T12:28:14;95671.13;;;29.28;36.23
73674;BME280;61975;48.660;10.164;2022-08-03T12:30:41;95667.31;;;29.37;35.67
73674;BME280;61975;48.660;10.164;2022-08-03T12:33:25;95661.44;;;29.51;35.48
73674;BME280;61975;48.660;10.164;2022-08-03T12:36:06;95676.72;;;29.68;36.66
73674;BME280;61975;48.660;10.164;2022-08-03T12:38:35;95665.09;;;29.77;35.78
73674;BME280;61975;48.660;10.164;2022-08-03T12:41:09;95665.75;;;29.98;34.67
73674;BME280;61975;48.660;10.164;2022-08-03T12:43:50;95654.91;;;30.07;34.12
73674;BME280;61975;48.660;10.164;2022-08-03T12:46:17;95654.94;;;30.13;34.55
73674;BME280;61975;48.660;10.164;2022-08-03T12:51:29;95650.94;;;30.41;34.25
73674;BME280;61975;48.660;10.164;2022-08-03T12:53:55;95648.94;;;30.58;32.96
73674;BME280;61975;48.660;10.164;2022-08-03T12:56:21;95646.16;;;30.69;31.19
73674;BME280;61975;48.660;10.164;2022-08-03T12:58:47;95650.09;;;30.72;31.82
73674;BME280;61975;48.660;10.164;2022-08-03T13:01:14;95650.28;;;30.68;32.64
73674;BME280;61975;48.660;10.164;2022-08-03T13:03:44;95646.72;;;30.73;31.87
73674;BME280;61975;48.660;10.164;2022-08-03T13:06:21;95645.72;;;30.87;32.93
73674;BME280;61975;48.660;10.164;2022-08-03T13:08:47;95648.31;;;30.91;31.34
73674;BME280;61975;48.660;10.164;2022-08-03T13:11:26;95655.84;;;30.77;30.93
73674;BME280;61975;48.660;10.164;2022-08-03T13:13:53;95651.94;;;30.80;30.04
73674;BME280;61975;48.660;10.164;2022-08-03T13:16:20;95644.44;;;30.94;30.52
73674;BME280;61975;48.660;10.164;2022-08-03T13:18:49;95642.66;;;31.07;30.00
73674;BME280;61975;48.660;10.164;2022-08-03T13:21:17;95644.19;;;31.03;28.91
73674;BME280;61975;48.660;10.164;2022-08-03T13:23:43;95646.78;;;31.06;29.36
73674;BME280;61975;48.660;10.164;2022-08-03T13:26:09;95633.25;;;31.12;29.42
73674;BME280;61975;48.660;10.164;2022-08-03T13:28:34;95635.63;;;31.25;28.63
73674;BME280;61975;48.660;10.164;2022-08-03T13:31:00;95631.25;;;31.29;28.79
73674;BME280;61975;48.660;10.164;2022-08-03T13:33:26;95631.75;;;31.45;29.21
73674;BME280;61975;48.660;10.164;2022-08-03T13:35:52;95625.50;;;31.52;28.48
73674;BME280;61975;48.660;10.164;2022-08-03T13:38:18;95625.00;;;31.48;29.43
73674;BME280;61975;48.660;10.164;2022-08-03T13:40:43;95622.91;;;31.65;29.45
73674;BME280;61975;48.660;10.164;2022-08-03T13:43:08;95628.91;;;31.72;29.98
73674;BME280;61975;48.660;10.164;2022-08-03T13:45:34;95622.41;;;31.83;29.54
73674;BME280;61975;48.660;10.164;2022-08-03T13:48:00;95614.81;;;32.02;28.43
73674;BME280;61975;48.660;10.164;2022-08-03T13:50:26;95611.91;;;32.13;27.81